sensor_id;sensor_type;location;lat;lon;timestamp;P1;durP1;ratioP1;P2;durP2;ratioP2
49978;SDS011;35869;50.990;6.962;2023-03-01T00:02:05;7.68;;;5.95;;
49978;SDS011;35869;50.990;6.962;2023-03-01T00:07:05;8.80;;;6.28;;
49978;SDS011;35869;50.990;6.962;2023-03-01T00:12:06;7.70;;;5.93;;
49978;SDS011;35869;50.990;6.962;2023-03-01T00:17:06;9.00;;;6.43;;
49978;SDS011;35869;50.990;6.962;2023-03-01T00:22:06;7.85;;;6.40;;
49978;SDS011;35869;50.990;6.962;2023-03-01T00:27:07;7.20;;;6.22;;
49978;SDS011;35869;50.990;6.962;2023-03-01T00:32:07;9.23;;;6.47;;
49978;SDS011;35869;50.990;6.962;2023-03-01T00:37:07;7.03;;;6.07;;
49978;SDS011;35869;50.990;6.962;2023-03-01T00:42:07;8.77;;;6.53;;
49978;SDS011;35869;50.990;6.962;2023-03-01T00:47:07;8.82;;;6.07;;
49978;SDS011;35869;50.990;6.962;2023-03-01T00:52:08;8.40;;;6.00;;
49978;SDS011;35869;50.990;6.962;2023-03-01T00:57:08;7.97;;;6.25;;
49978;SDS011;35869;50.990;6.962;2023-03-01T01:02:08;10.15;;;6.53;;
49978;SDS011;35869;50.990;6.962;2023-03-01T01:07:09;7.20;;;6.47;;
49978;SDS011;35869;50.990;6.962;2023-03-01T01:12:09;7.55;;;5.75;;
49978;SDS011;35869;50.990;6.962;2023-03-01T01:17:09;8.30;;;6.30;;
49978;SDS011;35869;50.990;6.962;2023-03-01T01:22:09;7.40;;;6.03;;
49978;SDS011;35869;50.990;6.962;2023-03-01T01:27:10;8.65;;;6.18;;
49978;SDS011;35869;50.990;6.962;2023-03-01T01:32:10;8.70;;;7.18;;
49978;SDS011;35869;50.990;6.962;2023-03-01T01:37:10;8.70;;;6.30;;
49978;SDS011;35869;50.990;6.962;2023-03-01T01:42:17;6.85;;;6.13;;
49978;SDS011;35869;50.990;6.962;2023-03-01T01:47:19;9.93;;;6.38;;
49978;SDS011;35869;50.990;6.962;2023-03-01T01:52:24;7.60;;;5.63;;
49978;SDS011;35869;50.990;6.962;2023-03-01T01:57:38;8.25;;;6.10;;
49978;SDS011;35869;50.990;6.962;2023-03-01T02:02:41;8.02;;;6.70;;
49978;SDS011;35869;50.990;6.962;2023-03-01T02:07:44;9.32;;;6.82;;
49978;SDS011;35869;50.990;6.962;2023-03-01T02:12:46;8.82;;;6.93;;
49978;SDS011;35869;50.990;6.962;2023-03-01T02:17:46;9.87;;;7.47;;
49978;SDS011;35869;50.990;6.962;2023-03-01T02:22:47;9.00;;;7.18;;
49978;SDS011;35869;50.990;6.962;2023-03-01T02:33:15;9.45;;;6.80;;
49978;SDS011;35869;50.990;6.962;2023-03-01T02:38:15;7.95;;;7.10;;
49978;SDS011;35869;50.990;6.962;2023-03-01T02:43:15;8.47;;;7.13;;
49978;SDS011;35869;50.990;6.962;2023-03-01T02:48:17;9.52;;;7.03;;
49978;SDS011;35869;50.990;6.962;2023-03-01T02:58:32;9.52;;;7.38;;
49978;SDS011;35869;50.990;6.962;2023-03-01T03:03:32;8.40;;;7.20;;
49978;SDS011;35869;50.990;6.962;2023-03-01T03:08:32;11.40;;;7.60;;
49978;SDS011;35869;50.990;6.962;2023-03-01T03:13:32;7.97;;;7.15;;
49978;SDS011;35869;50.990;6.962;2023-03-01T03:18:33;10.00;;;7.70;;
49978;SDS011;35869;50.990;6.962;2023-03-01T03:23:33;9.90;;;8.07;;
49978;SDS011;35869;50.990;6.962;2023-03-01T03:28:33;9.10;;;7.80;;
49978;SDS011;35869;50.990;6.962;2023-03-01T03:33:35;10.68;;;7.63;;
49978;SDS011;35869;50.990;6.962;2023-03-01T03:38:35;11.70;;;9.00;;
49978;SDS011;35869;50.990;6.962;2023-03-01T03:43:36;11.15;;;8.77;;
49978;SDS011;35869;50.990;6.962;2023-03-01T03:48:38;9.25;;;7.35;;
49978;SDS011;35869;50.990;6.962;2023-03-01T03:53:41;11.43;;;8.10;;
49978;SDS011;35869;50.990;6.962;2023-03-01T03:58:41;11.30;;;8.45;;
49978;SDS011;35869;50.990;6.962;2023-03-01T04:03:42;11.20;;;8.48;;
49978;SDS011;35869;50.990;6.962;2023-03-01T04:08:42;11.85;;;9.23;;
49978;SDS011;35869;50.990;6.962;2023-03-01T04:13:42;14.15;;;9.95;;
49978;SDS011;35869;50.990;6.962;2023-03-01T04:18:43;12.52;;;9.88;;
49978;SDS011;35869;50.990;6.962;2023-03-01T04:28:43;13.68;;;9.57;;
49978;SDS011;35869;50.990;6.962;2023-03-01T04:33:45;13.73;;;9.23;;
49978;SDS011;35869;50.990;6.962;2023-03-01T04:38:49;14.07;;;10.40;;
49978;SDS011;35869;50.990;6.962;2023-03-01T04:43:50;15.70;;;10.82;;
49978;SDS011;35869;50.990;6.962;2023-03-01T04:48:50;16.57;;;10.57;;
49978;SDS011;35869;50.990;6.962;2023-03-01T04:53:50;20.85;;;10.23;;
49978;SDS011;35869;50.990;6.962;2023-03-01T04:58:53;16.00;;;11.07;;
49978;SDS011;35869;50.990;6.962;2023-03-01T05:03:53;14.27;;;10.85;;
49978;SDS011;35869;50.990;6.962;2023-03-01T05:08:54;21.15;;;11.02;;
49978;SDS011;35869;50.990;6.962;2023-03-01T05:13:54;13.13;;;9.50;;
49978;SDS011;35869;50.990;6.962;2023-03-01T05:18:54;11.23;;;9.55;;
49978;SDS011;35869;50.990;6.962;2023-03-01T05:23:54;15.65;;;10.90;;
49978;SDS011;35869;50.990;6.962;2023-03-01T05:28:55;17.23;;;11.93;;
49978;SDS011;35869;50.990;6.962;2023-03-01T05:33:55;13.32;;;11.55;;
49978;SDS011;35869;50.990;6.962;2023-03-01T05:38:56;14.23;;;10.68;;
49978;SDS011;35869;50.990;6.962;2023-03-01T05:43:56;12.32;;;10.32;;
49978;SDS011;35869;50.990;6.962;2023-03-01T05:48:56;15.70;;;11.32;;
49978;SDS011;35869;50.990;6.962;2023-03-01T05:53:56;19.23;;;11.02;;
49978;SDS011;35869;50.990;6.962;2023-03-01T05:58:56;16.98;;;11.45;;
49978;SDS011;35869;50.990;6.962;2023-03-01T06:03:56;18.52;;;12.57;;
49978;SDS011;35869;50.990;6.962;2023-03-01T06:08:57;18.38;;;12.43;;
49978;SDS011;35869;50.990;6.962;2023-03-01T06:13:57;14.88;;;11.82;;
49978;SDS011;35869;50.990;6.962;2023-03-01T06:18:57;16.08;;;11.30;;
49978;SDS011;35869;50.990;6.962;2023-03-01T06:23:57;16.27;;;12.45;;
49978;SDS011;35869;50.990;6.962;2023-03-01T06:28:57;21.88;;;12.70;;
49978;SDS011;35869;50.990;6.962;2023-03-01T06:33:58;17.55;;;12.05;;
49978;SDS011;35869;50.990;6.962;2023-03-01T06:38:58;16.25;;;11.65;;
49978;SDS011;35869;50.990;6.962;2023-03-01T06:43:58;17.20;;;10.98;;
49978;SDS011;35869;50.990;6.962;2023-03-01T06:48:59;13.75;;;10.90;;
49978;SDS011;35869;50.990;6.962;2023-03-01T06:53:59;15.38;;;11.15;;
49978;SDS011;35869;50.990;6.962;2023-03-01T06:58:59;14.30;;;11.43;;
49978;SDS011;35869;50.990;6.962;2023-03-01T07:03:59;17.13;;;12.52;;
49978;SDS011;35869;50.990;6.962;2023-03-01T07:08:59;15.68;;;12.25;;
49978;SDS011;35869;50.990;6.962;2023-03-01T07:14:00;17.52;;;12.45;;
49978;SDS011;35869;50.990;6.962;2023-03-01T07:19:00;17.73;;;12.32;;
49978;SDS011;35869;50.990;6.962;2023-03-01T07:24:00;17.98;;;12.10;;
49978;SDS011;35869;50.990;6.962;2023-03-01T07:29:01;17.52;;;13.15;;
49978;SDS011;35869;50.990;6.962;2023-03-01T07:34:02;15.63;;;12.23;;
49978;SDS011;35869;50.990;6.962;2023-03-01T07:39:03;14.68;;;12.48;;
49978;SDS011;35869;50.990;6.962;2023-03-01T07:44:03;15.68;;;11.70;;
49978;SDS011;35869;50.990;6.962;2023-03-01T07:49:03;18.05;;;12.57;;
49978;SDS011;35869;50.990;6.962;2023-03-01T07:54:04;16.27;;;12.27;;
49978;SDS011;35869;50.990;6.962;2023-03-01T07:59:04;15.40;;;12.30;;
49978;SDS011;35869;50.990;6.962;2023-03-01T08:04:12;16.40;;;13.30;;
49978;SDS011;35869;50.990;6.962;2023-03-01T08:09:12;16.98;;;12.45;;
49978;SDS011;35869;50.990;6.962;2023-03-01T08:14:13;16.98;;;11.73;;
49978;SDS011;35869;50.990;6.962;2023-03-01T08:19:13;15.20;;;11.02;;
49978;SDS011;35869;50.990;6.962;2023-03-01T08:24:13;14.93;;;11.73;;
49978;SDS011;35869;50.990;6.962;2023-03-01T08:29:13;17.63;;;12.60;;
49978;SDS011;35869;50.990;6.962;2023-03-01T08:34:14;17.17;;;12.55;;
49978;SDS011;35869;50.990;6.962;2023-03-01T08:39:17;13.50;;;11.52;;
49978;SDS011;35869;50.990;6.962;2023-03-01T08:44:18;16.85;;;11.80;;
49978;SDS011;35869;50.990;6.962;2023-03-01T08:49:19;16.60;;;11.50;;
49978;SDS011;35869;50.990;6.962;2023-03-01T08:54:21;14.75;;;11.57;;
49978;SDS011;35869;50.990;6.962;2023-03-01T08:59:21;18.35;;;11.60;;
49978;SDS011;35869;50.990;6.962;2023-03-01T09:04:21;17.25;;;10.10;;
49978;SDS011;35869;50.990;6.962;2023-03-01T09:09:22;17.88;;;10.15;;
49978;SDS011;35869;50.990;6.962;2023-03-01T09:14:22;11.50;;;9.07;;
49978;SDS011;35869;50.990;6.962;2023-03-01T09:19:22;12.80;;;9.38;;
49978;SDS011;35869;50.990;6.962;2023-03-01T09:24:24;13.53;;;8.97;;
49978;SDS011;35869;50.990;6.962;2023-03-01T09:29:24;11.65;;;9.48;;
49978;SDS011;35869;50.990;6.962;2023-03-01T09:34:25;11.00;;;6.93;;
49978;SDS011;35869;50.990;6.962;2023-03-01T09:39:25;14.10;;;8.43;;
49978;SDS011;35869;50.990;6.962;2023-03-01T09:44:40;10.65;;;6.75;;
49978;SDS011;35869;50.990;6.962;2023-03-01T09:50:11;11.45;;;7.35;;
49978;SDS011;35869;50.990;6.962;2023-03-01T09:55:14;10.48;;;6.72;;
49978;SDS011;35869;50.990;6.962;2023-03-01T10:00:30;11.77;;;7.55;;
49978;SDS011;35869;50.990;6.962;2023-03-01T10:10:58;11.32;;;7.45;;
49978;SDS011;35869;50.990;6.962;2023-03-01T10:16:05;10.63;;;7.00;;
49978;SDS011;35869;50.990;6.962;2023-03-01T10:21:13;10.45;;;7.75;;
49978;SDS011;35869;50.990;6.962;2023-03-01T10:26:26;8.13;;;6.90;;
49978;SDS011;35869;50.990;6.962;2023-03-01T10:31:48;11.68;;;8.00;;
49978;SDS011;35869;50.990;6.962;2023-03-01T10:36:50;10.80;;;7.07;;
49978;SDS011;35869;50.990;6.962;2023-03-01T10:42:03;10.10;;;6.57;;
49978;SDS011;35869;50.990;6.962;2023-03-01T10:47:08;15.52;;;7.68;;
49978;SDS011;35869;50.990;6.962;2023-03-01T10:52:21;10.68;;;7.03;;
49978;SDS011;35869;50.990;6.962;2023-03-01T10:57:34;10.50;;;6.95;;
49978;SDS011;35869;50.990;6.962;2023-03-01T11:02:38;10.43;;;6.60;;
49978;SDS011;35869;50.990;6.962;2023-03-01T11:07:55;9.60;;;6.53;;
49978;SDS011;35869;50.990;6.962;2023-03-01T11:13:06;9.48;;;7.18;;
49978;SDS011;35869;50.990;6.962;2023-03-01T11:18:20;11.90;;;8.15;;
49978;SDS011;35869;50.990;6.962;2023-03-01T11:23:21;9.75;;;6.30;;
49978;SDS011;35869;50.990;6.962;2023-03-01T11:28:22;9.30;;;7.13;;
49978;SDS011;35869;50.990;6.962;2023-03-01T11:33:37;12.68;;;7.38;;
49978;SDS011;35869;50.990;6.962;2023-03-01T11:38:43;9.88;;;6.85;;
49978;SDS011;35869;50.990;6.962;2023-03-01T11:54:37;10.40;;;6.22;;
49978;SDS011;35869;50.990;6.962;2023-03-01T12:05:52;9.32;;;7.30;;
49978;SDS011;35869;50.990;6.962;2023-03-01T12:21:30;8.98;;;6.43;;
49978;SDS011;35869;50.990;6.962;2023-03-01T12:31:51;9.55;;;6.22;;
49978;SDS011;35869;50.990;6.962;2023-03-01T12:38:16;8.07;;;5.70;;
49978;SDS011;35869;50.990;6.962;2023-03-01T12:43:58;9.88;;;6.35;;
49978;SDS011;35869;50.990;6.962;2023-03-01T12:53:35;11.32;;;7.32;;
49978;SDS011;35869;50.990;6.962;2023-03-01T13:14:37;11.20;;;7.15;;
49978;SDS011;35869;50.990;6.962;2023-03-01T13:19:55;9.20;;;5.65;;
49978;SDS011;35869;50.990;6.962;2023-03-01T13:25:11;9.50;;;6.28;;
49978;SDS011;35869;50.990;6.962;2023-03-01T13:35:41;9.70;;;6.50;;
49978;SDS011;35869;50.990;6.962;2023-03-01T13:40:56;6.45;;;5.60;;
49978;SDS011;35869;50.990;6.962;2023-03-01T13:45:58;8.80;;;6.00;;
49978;SDS011;35869;50.990;6.962;2023-03-01T13:51:09;7.97;;;5.63;;
49978;SDS011;35869;50.990;6.962;2023-03-01T13:56:12;8.45;;;5.20;;
49978;SDS011;35869;50.990;6.962;2023-03-01T14:01:28;9.13;;;5.90;;
49978;SDS011;35869;50.990;6.962;2023-03-01T14:06:30;7.32;;;5.22;;
49978;SDS011;35869;50.990;6.962;2023-03-01T14:16:57;8.45;;;6.15;;
49978;SDS011;35869;50.990;6.962;2023-03-01T14:22:23;9.05;;;6.03;;
49978;SDS011;35869;50.990;6.962;2023-03-01T14:27:25;7.45;;;5.57;;
49978;SDS011;35869;50.990;6.962;2023-03-01T14:32:28;9.07;;;5.18;;
49978;SDS011;35869;50.990;6.962;2023-03-01T14:37:30;12.02;;;6.20;;
49978;SDS011;35869;50.990;6.962;2023-03-01T14:42:34;6.78;;;5.18;;
49978;SDS011;35869;50.990;6.962;2023-03-01T14:47:35;7.97;;;6.03;;
49978;SDS011;35869;50.990;6.962;2023-03-01T14:52:37;10.10;;;6.70;;
49978;SDS011;35869;50.990;6.962;2023-03-01T14:57:45;9.23;;;6.20;;
49978;SDS011;35869;50.990;6.962;2023-03-01T15:02:48;7.35;;;5.72;;
49978;SDS011;35869;50.990;6.962;2023-03-01T15:07:51;8.18;;;5.90;;
49978;SDS011;35869;50.990;6.962;2023-03-01T15:12:52;8.75;;;6.13;;
49978;SDS011;35869;50.990;6.962;2023-03-01T15:17:53;8.53;;;5.87;;
49978;SDS011;35869;50.990;6.962;2023-03-01T15:22:55;12.73;;;7.13;;
49978;SDS011;35869;50.990;6.962;2023-03-01T15:38:31;6.78;;;5.53;;
49978;SDS011;35869;50.990;6.962;2023-03-01T15:43:39;6.22;;;4.90;;
49978;SDS011;35869;50.990;6.962;2023-03-01T15:48:44;10.68;;;5.47;;
49978;SDS011;35869;50.990;6.962;2023-03-01T15:53:48;8.18;;;6.30;;
49978;SDS011;35869;50.990;6.962;2023-03-01T15:58:50;7.57;;;5.38;;
49978;SDS011;35869;50.990;6.962;2023-03-01T16:03:51;10.35;;;5.20;;
49978;SDS011;35869;50.990;6.962;2023-03-01T16:08:51;11.70;;;6.65;;
49978;SDS011;35869;50.990;6.962;2023-03-01T16:13:51;9.77;;;4.85;;
49978;SDS011;35869;50.990;6.962;2023-03-01T16:18:51;10.38;;;5.20;;
49978;SDS011;35869;50.990;6.962;2023-03-01T16:23:51;8.23;;;4.80;;
49978;SDS011;35869;50.990;6.962;2023-03-01T16:28:54;6.60;;;5.37;;
49978;SDS011;35869;50.990;6.962;2023-03-01T16:33:56;7.95;;;4.75;;
49978;SDS011;35869;50.990;6.962;2023-03-01T16:38:58;8.55;;;4.95;;
49978;SDS011;35869;50.990;6.962;2023-03-01T16:43:59;6.90;;;4.85;;
49978;SDS011;35869;50.990;6.962;2023-03-01T16:48:59;7.28;;;4.63;;
49978;SDS011;35869;50.990;6.962;2023-03-01T16:53:59;8.10;;;4.40;;
49978;SDS011;35869;50.990;6.962;2023-03-01T16:59:00;10.20;;;4.87;;
49978;SDS011;35869;50.990;6.962;2023-03-01T17:04:00;5.72;;;4.57;;
49978;SDS011;35869;50.990;6.962;2023-03-01T17:09:00;7.63;;;5.78;;
49978;SDS011;35869;50.990;6.962;2023-03-01T17:14:00;5.85;;;4.45;;
49978;SDS011;35869;50.990;6.962;2023-03-01T17:19:01;8.10;;;5.35;;
49978;SDS011;35869;50.990;6.962;2023-03-01T17:24:01;8.48;;;5.05;;
49978;SDS011;35869;50.990;6.962;2023-03-01T17:29:01;7.32;;;4.97;;
49978;SDS011;35869;50.990;6.962;2023-03-01T17:34:02;6.40;;;4.20;;
49978;SDS011;35869;50.990;6.962;2023-03-01T17:39:02;8.10;;;4.65;;
49978;SDS011;35869;50.990;6.962;2023-03-01T17:44:02;6.03;;;3.97;;
49978;SDS011;35869;50.990;6.962;2023-03-01T17:49:02;6.60;;;4.93;;
49978;SDS011;35869;50.990;6.962;2023-03-01T17:54:03;6.78;;;4.95;;
49978;SDS011;35869;50.990;6.962;2023-03-01T17:59:04;7.72;;;4.50;;
49978;SDS011;35869;50.990;6.962;2023-03-01T18:04:04;6.95;;;4.65;;
49978;SDS011;35869;50.990;6.962;2023-03-01T18:09:05;7.45;;;4.80;;
49978;SDS011;35869;50.990;6.962;2023-03-01T18:19:06;5.43;;;4.78;;
49978;SDS011;35869;50.990;6.962;2023-03-01T18:24:07;5.97;;;4.38;;
49978;SDS011;35869;50.990;6.962;2023-03-01T18:29:07;7.13;;;5.22;;
49978;SDS011;35869;50.990;6.962;2023-03-01T18:34:08;7.20;;;5.45;;
49978;SDS011;35869;50.990;6.962;2023-03-01T18:39:10;11.25;;;5.32;;
49978;SDS011;35869;50.990;6.962;2023-03-01T18:44:10;7.83;;;5.10;;
49978;SDS011;35869;50.990;6.962;2023-03-01T18:49:11;6.97;;;4.93;;
49978;SDS011;35869;50.990;6.962;2023-03-01T18:54:12;8.38;;;4.53;;
49978;SDS011;35869;50.990;6.962;2023-03-01T18:59:13;8.15;;;5.28;;
49978;SDS011;35869;50.990;6.962;2023-03-01T19:04:13;8.60;;;5.18;;
49978;SDS011;35869;50.990;6.962;2023-03-01T19:09:13;8.18;;;5.07;;
49978;SDS011;35869;50.990;6.962;2023-03-01T19:14:13;10.23;;;6.13;;
49978;SDS011;35869;50.990;6.962;2023-03-01T19:19:14;10.23;;;5.50;;
49978;SDS011;35869;50.990;6.962;2023-03-01T19:24:14;7.65;;;5.57;;
49978;SDS011;35869;50.990;6.962;2023-03-01T19:29:14;8.55;;;5.82;;
49978;SDS011;35869;50.990;6.962;2023-03-01T19:34:14;8.02;;;5.55;;
49978;SDS011;35869;50.990;6.962;2023-03-01T19:39:15;8.02;;;6.07;;
49978;SDS011;35869;50.990;6.962;2023-03-01T19:44:15;11.27;;;5.87;;
49978;SDS011;35869;50.990;6.962;2023-03-01T19:49:15;7.18;;;5.10;;
49978;SDS011;35869;50.990;6.962;2023-03-01T19:54:15;7.30;;;6.35;;
49978;SDS011;35869;50.990;6.962;2023-03-01T19:59:16;10.90;;;5.43;;
49978;SDS011;35869;50.990;6.962;2023-03-01T20:04:17;8.70;;;5.85;;
49978;SDS011;35869;50.990;6.962;2023-03-01T20:09:17;9.63;;;6.07;;
49978;SDS011;35869;50.990;6.962;2023-03-01T20:14:17;8.32;;;5.13;;
49978;SDS011;35869;50.990;6.962;2023-03-01T20:19:18;8.17;;;5.37;;
49978;SDS011;35869;50.990;6.962;2023-03-01T20:24:18;10.25;;;5.60;;
49978;SDS011;35869;50.990;6.962;2023-03-01T20:29:18;7.60;;;5.28;;
49978;SDS011;35869;50.990;6.962;2023-03-01T20:34:18;8.32;;;5.40;;
49978;SDS011;35869;50.990;6.962;2023-03-01T20:39:19;8.55;;;5.03;;
49978;SDS011;35869;50.990;6.962;2023-03-01T20:44:19;9.57;;;5.57;;
49978;SDS011;35869;50.990;6.962;2023-03-01T20:49:19;8.90;;;5.63;;
49978;SDS011;35869;50.990;6.962;2023-03-01T20:54:19;7.50;;;4.85;;
49978;SDS011;35869;50.990;6.962;2023-03-01T20:59:19;6.68;;;4.85;;
49978;SDS011;35869;50.990;6.962;2023-03-01T21:04:20;8.82;;;5.10;;
49978;SDS011;35869;50.990;6.962;2023-03-01T21:09:20;9.15;;;5.30;;
49978;SDS011;35869;50.990;6.962;2023-03-01T21:14:20;7.25;;;5.43;;
49978;SDS011;35869;50.990;6.962;2023-03-01T21:19:20;10.48;;;6.05;;
49978;SDS011;35869;50.990;6.962;2023-03-01T21:24:21;6.95;;;5.07;;
49978;SDS011;35869;50.990;6.962;2023-03-01T21:29:21;6.90;;;5.22;;
49978;SDS011;35869;50.990;6.962;2023-03-01T21:34:21;9.30;;;5.93;;
49978;SDS011;35869;50.990;6.962;2023-03-01T21:39:21;8.00;;;5.45;;
49978;SDS011;35869;50.990;6.962;2023-03-01T21:44:22;10.40;;;6.18;;
49978;SDS011;35869;50.990;6.962;2023-03-01T21:49:23;9.30;;;6.15;;
49978;SDS011;35869;50.990;6.962;2023-03-01T21:59:25;8.18;;;5.80;;
49978;SDS011;35869;50.990;6.962;2023-03-01T22:04:25;7.80;;;5.50;;
49978;SDS011;35869;50.990;6.962;2023-03-01T22:09:25;9.17;;;5.57;;
49978;SDS011;35869;50.990;6.962;2023-03-01T22:14:25;10.70;;;5.40;;
49978;SDS011;35869;50.990;6.962;2023-03-01T22:19:26;9.98;;;5.75;;
49978;SDS011;35869;50.990;6.962;2023-03-01T22:24:26;8.75;;;6.15;;
49978;SDS011;35869;50.990;6.962;2023-03-01T22:29:27;7.60;;;6.35;;
49978;SDS011;35869;50.990;6.962;2023-03-01T22:34:28;7.95;;;5.72;;
49978;SDS011;35869;50.990;6.962;2023-03-01T22:39:28;9.07;;;6.15;;
49978;SDS011;35869;50.990;6.962;2023-03-01T22:44:28;11.57;;;6.38;;
49978;SDS011;35869;50.990;6.962;2023-03-01T22:49:29;8.43;;;5.47;;
49978;SDS011;35869;50.990;6.962;2023-03-01T22:54:29;7.38;;;5.40;;
49978;SDS011;35869;50.990;6.962;2023-03-01T22:59:29;6.78;;;5.25;;
49978;SDS011;35869;50.990;6.962;2023-03-01T23:04:29;7.80;;;5.05;;
49978;SDS011;35869;50.990;6.962;2023-03-01T23:09:31;9.68;;;6.20;;
49978;SDS011;35869;50.990;6.962;2023-03-01T23:14:32;6.68;;;5.25;;
49978;SDS011;35869;50.990;6.962;2023-03-01T23:19:33;8.70;;;5.37;;
49978;SDS011;35869;50.990;6.962;2023-03-01T23:24:33;7.82;;;5.57;;
49978;SDS011;35869;50.990;6.962;2023-03-01T23:29:33;8.13;;;5.47;;
49978;SDS011;35869;50.990;6.962;2023-03-01T23:34:33;12.80;;;6.80;;
49978;SDS011;35869;50.990;6.962;2023-03-01T23:39:34;9.23;;;5.90;;
49978;SDS011;35869;50.990;6.962;2023-03-01T23:44:34;9.95;;;6.38;;
49978;SDS011;35869;50.990;6.962;2023-03-01T23:49:37;9.52;;;6.57;;
49978;SDS011;35869;50.990;6.962;2023-03-01T23:54:37;14.48;;;6.60;;
49978;SDS011;35869;50.990;6.962;2023-03-01T23:59:37;8.15;;;6.20;;
